Terminal Aerodrome Forecast
Issued by NWS

Home | Current Version | Previous Version | Text Only | Print | Product List | Glossary On
Versions: 1 2 3 4 5 6 7 8 9 10 11 12 13 14 15
000
FTUS44 KCRP 012332
TAFLRD
TAF
KLRD 012332Z 0200/0224 17011KT P6SM SCT030
     FM021000 14010KT P6SM BKN012
      TEMPO 0210/0214 BKN009
     FM021500 15008KT P6SM BKN024
     FM021700 16010KT P6SM SCT035=

USA.gov is the U.S. government's official web portal to all federal, state and local government web resources and services.